createdAt,value
2018-04-13T00:00:29.832Z,13.66
2018-04-13T00:01:41.229Z,13.51
2018-04-13T00:02:53.203Z,13.59
2018-04-13T00:04:04.989Z,13.56
2018-04-13T00:05:16.391Z,13.56
2018-04-13T00:06:27.410Z,13.61
2018-04-13T00:07:38.018Z,13.63
2018-04-13T00:08:49.912Z,13.63
2018-04-13T00:10:01.069Z,13.61
2018-04-13T00:11:12.901Z,13.67
2018-04-13T00:12:26.529Z,13.63
2018-04-13T00:13:38.938Z,13.58
2018-04-13T00:14:49.537Z,13.59
2018-04-13T00:16:00.944Z,13.56
2018-04-13T00:17:11.806Z,13.59
2018-04-13T00:18:22.255Z,13.63
2018-04-13T00:19:33.085Z,13.54
2018-04-13T00:20:44.700Z,13.61
2018-04-13T00:22:03.020Z,13.7
2018-04-13T00:23:14.999Z,13.64
2018-04-13T00:24:25.869Z,13.66
2018-04-13T00:25:37.936Z,13.63
2018-04-13T00:26:50.290Z,13.61
2018-04-13T00:28:01.524Z,13.69
2018-04-13T00:29:13.354Z,13.56
2018-04-13T00:30:24.938Z,13.56
2018-04-13T00:31:36.637Z,13.59
2018-04-13T00:32:47.123Z,13.64
2018-04-13T00:33:57.941Z,13.56
2018-04-13T00:35:09.715Z,13.54
2018-04-13T00:36:21.736Z,13.64
2018-04-13T00:37:32.696Z,13.56
2018-04-13T00:38:47.580Z,13.59
2018-04-13T00:40:00.585Z,13.59
2018-04-13T00:41:11.875Z,13.49
2018-04-13T00:42:24.501Z,13.55
2018-04-13T00:43:35.317Z,13.55
2018-04-13T00:44:46.535Z,13.59
2018-04-13T00:45:57.487Z,13.56
2018-04-13T00:47:09.471Z,13.45
2018-04-13T00:48:19.822Z,13.46
2018-04-13T00:49:29.966Z,13.49
2018-04-13T00:50:41.387Z,13.46
2018-04-13T00:51:53.540Z,13.46
2018-04-13T00:53:04.888Z,13.46
2018-04-13T00:54:16.488Z,13.51
2018-04-13T00:55:29.330Z,13.45
2018-04-13T00:56:40.220Z,13.48
2018-04-13T00:57:52.004Z,13.51
2018-04-13T00:59:03.037Z,13.45
2018-04-13T01:00:15.347Z,13.44
2018-04-13T01:01:25.718Z,13.37
2018-04-13T01:02:36.336Z,13.37
2018-04-13T01:03:47.550Z,13.44
2018-04-13T01:04:59.403Z,13.41
2018-04-13T01:06:09.938Z,13.44
2018-04-13T01:07:21.256Z,13.37
2018-04-13T01:08:32.252Z,13.34
2018-04-13T01:09:44.128Z,13.33
2018-04-13T01:10:54.484Z,13.34
2018-04-13T01:12:04.876Z,13.37
2018-04-13T01:13:16.609Z,13.36
2018-04-13T01:14:27.397Z,13.26
2018-04-13T01:15:38.788Z,13.33
2018-04-13T01:16:49.386Z,13.26
2018-04-13T01:18:01.423Z,13.29
2018-04-13T01:19:11.857Z,13.31
2018-04-13T01:20:24.846Z,13.34
2018-04-13T01:21:35.229Z,13.36
2018-04-13T01:22:46.382Z,13.4
2018-04-13T01:23:59.014Z,13.34
2018-04-13T01:25:10.233Z,13.31
2018-04-13T01:26:20.127Z,13.31
2018-04-13T01:27:31.324Z,13.41
2018-04-13T01:28:41.757Z,13.46
2018-04-13T01:29:52.504Z,13.37
2018-04-13T01:31:05.739Z,13.4
2018-04-13T01:32:16.171Z,13.4
2018-04-13T01:33:27.360Z,13.45
2018-04-13T01:34:37.898Z,13.36
2018-04-13T01:35:51.339Z,13.37
2018-04-13T01:37:03.311Z,13.48
2018-04-13T01:38:15.092Z,13.44
2018-04-13T01:39:25.542Z,13.44
2018-04-13T01:40:37.042Z,13.51
2018-04-13T01:41:50.610Z,13.41
2018-04-13T01:43:01.996Z,13.48
2018-04-13T01:44:13.384Z,13.45
2018-04-13T01:45:24.539Z,13.41
2018-04-13T01:46:36.434Z,13.44
2018-04-13T01:47:47.528Z,13.46
2018-04-13T01:48:58.578Z,13.48
2018-04-13T01:50:10.539Z,13.46
2018-04-13T01:51:24.297Z,13.46
2018-04-13T01:52:39.180Z,13.46
2018-04-13T01:53:52.089Z,13.48
2018-04-13T01:55:04.082Z,13.46
2018-04-13T01:56:15.442Z,13.49
2018-04-13T01:57:27.227Z,13.51
2018-04-13T01:58:38.272Z,13.46
2018-04-13T01:59:51.141Z,13.49
2018-04-13T02:01:03.359Z,13.56
2018-04-13T02:02:20.194Z,13.58
2018-04-13T02:03:30.346Z,13.58
2018-04-13T02:04:43.640Z,13.55
2018-04-13T02:05:56.006Z,13.56
2018-04-13T02:07:07.423Z,13.54
2018-04-13T02:08:20.931Z,13.61
2018-04-13T02:09:48.565Z,13.55
2018-04-13T02:11:04.377Z,13.59
2018-04-13T02:12:16.352Z,13.58
2018-04-13T02:13:27.375Z,13.56
2018-04-13T02:14:39.025Z,13.59
2018-04-13T02:15:49.853Z,13.51
2018-04-13T02:17:01.005Z,13.51
2018-04-13T02:18:13.228Z,13.59
2018-04-13T02:19:24.218Z,13.56
2018-04-13T02:20:37.003Z,13.56
2018-04-13T02:21:48.954Z,13.55
2018-04-13T02:22:59.886Z,13.52
2018-04-13T02:24:12.520Z,13.48
2018-04-13T02:25:24.853Z,13.46
2018-04-13T02:26:35.868Z,13.48
2018-04-13T02:27:47.560Z,13.45
2018-04-13T02:28:58.984Z,13.41
2018-04-13T02:30:10.277Z,13.41
2018-04-13T02:31:36.473Z,13.48
2018-04-13T02:32:46.857Z,13.34
2018-04-13T02:33:58.344Z,13.33
2018-04-13T02:35:10.154Z,13.36
2018-04-13T02:36:20.395Z,13.31
2018-04-13T02:37:34.245Z,13.27
2018-04-13T02:38:44.666Z,13.27
2018-04-13T02:39:56.178Z,13.22
2018-04-13T02:41:07.385Z,13.21
2018-04-13T02:42:17.399Z,13.26
2018-04-13T02:43:27.720Z,13.19
2018-04-13T02:44:38.881Z,13.16
2018-04-13T02:45:51.057Z,13.08
2018-04-13T02:47:02.931Z,13.13
2018-04-13T02:48:14.637Z,13.08
2018-04-13T02:49:29.085Z,13.12
2018-04-13T02:50:41.190Z,13.06
2018-04-13T02:51:51.835Z,13.04
2018-04-13T02:53:03.048Z,13.01
2018-04-13T02:54:14.464Z,13.03
2018-04-13T02:55:24.707Z,13.06
2018-04-13T02:56:37.643Z,12.92
2018-04-13T02:57:49.032Z,13.06
2018-04-13T02:59:00.138Z,12.97
2018-04-13T03:00:10.530Z,12.95
2018-04-13T03:01:22.068Z,13.06
2018-04-13T03:02:32.693Z,12.9
2018-04-13T03:03:43.429Z,12.96
2018-04-13T03:04:53.830Z,13
2018-04-13T03:06:05.667Z,12.96
2018-04-13T03:07:17.007Z,12.97
2018-04-13T03:08:30.861Z,12.93
2018-04-13T03:09:41.513Z,12.96
2018-04-13T03:10:55.301Z,12.95
2018-04-13T03:12:06.276Z,12.84
2018-04-13T03:13:18.058Z,12.95
2018-04-13T03:14:31.939Z,12.81
2018-04-13T03:15:44.146Z,12.82
2018-04-13T03:16:55.049Z,12.89
2018-04-13T03:18:07.593Z,12.8
2018-04-13T03:19:18.545Z,12.82
2018-04-13T03:20:30.568Z,12.85
2018-04-13T03:21:41.211Z,12.85
2018-04-13T03:22:53.379Z,12.81
2018-04-13T03:24:04.333Z,12.97
2018-04-13T03:25:15.112Z,12.95
2018-04-13T03:26:27.404Z,12.97
2018-04-13T03:27:39.428Z,12.96
2018-04-13T03:28:50.938Z,12.96
2018-04-13T03:30:02.726Z,12.9
2018-04-13T03:31:14.961Z,12.96
2018-04-13T03:32:25.604Z,13
2018-04-13T03:33:38.373Z,12.95
2018-04-13T03:34:51.769Z,12.95
2018-04-13T03:36:04.417Z,12.96
2018-04-13T03:37:15.443Z,13.01
2018-04-13T03:38:28.054Z,13
2018-04-13T03:39:40.900Z,12.97
2018-04-13T03:40:53.865Z,12.92
2018-04-13T03:42:05.459Z,12.95
2018-04-13T03:43:18.067Z,12.97
2018-04-13T03:44:29.744Z,12.97
2018-04-13T03:45:40.411Z,12.96
2018-04-13T03:46:50.961Z,12.97
2018-04-13T03:48:01.804Z,12.95
2018-04-13T03:49:13.240Z,12.97
2018-04-13T03:50:25.179Z,12.9
2018-04-13T03:51:36.206Z,12.95
2018-04-13T03:52:50.625Z,12.95
2018-04-13T03:54:02.669Z,12.97
2018-04-13T03:55:20.408Z,12.97
2018-04-13T03:56:35.676Z,12.96
2018-04-13T03:57:47.984Z,12.9
2018-04-13T03:59:00.072Z,12.95
2018-04-13T04:00:11.689Z,12.95
2018-04-13T04:01:24.959Z,12.85
2018-04-13T04:02:36.569Z,12.96
2018-04-13T04:03:48.414Z,12.95
2018-04-13T04:05:00.622Z,12.95
2018-04-13T04:06:11.872Z,12.93
2018-04-13T04:07:22.860Z,12.95
2018-04-13T04:08:34.270Z,12.97
2018-04-13T04:09:46.903Z,12.95
2018-04-13T04:10:58.554Z,12.82
2018-04-13T04:12:10.518Z,12.93
2018-04-13T04:13:23.035Z,12.9
2018-04-13T04:14:50.964Z,12.9
2018-04-13T04:16:03.386Z,12.85
2018-04-13T04:17:15.438Z,12.92
2018-04-13T04:18:26.266Z,12.82
2018-04-13T04:19:37.760Z,12.93
2018-04-13T04:20:48.797Z,12.88
2018-04-13T04:21:59.589Z,12.8
2018-04-13T04:23:11.445Z,12.84
2018-04-13T04:24:23.445Z,12.81
2018-04-13T04:25:36.687Z,12.81
2018-04-13T04:26:49.830Z,12.8
2018-04-13T04:28:00.770Z,12.81
2018-04-13T04:29:11.260Z,12.84
2018-04-13T04:30:22.665Z,12.82
2018-04-13T04:31:36.431Z,12.8
2018-04-13T04:32:47.042Z,12.82
2018-04-13T04:34:03.102Z,12.8
2018-04-13T04:35:14.923Z,12.81
2018-04-13T04:36:44.421Z,12.77
2018-04-13T04:37:56.052Z,12.84
2018-04-13T04:39:08.220Z,12.81
2018-04-13T04:40:20.226Z,12.78
2018-04-13T04:41:32.026Z,12.82
2018-04-13T04:42:43.831Z,12.81
2018-04-13T04:43:55.630Z,12.82
2018-04-13T04:45:08.251Z,12.77
2018-04-13T04:46:19.667Z,12.82
2018-04-13T04:47:31.738Z,12.82
2018-04-13T04:48:43.186Z,12.8
2018-04-13T04:49:56.845Z,12.77
2018-04-13T04:51:07.978Z,12.78
2018-04-13T04:52:22.870Z,12.81
2018-04-13T04:53:36.950Z,12.82
2018-04-13T04:54:47.050Z,12.8
2018-04-13T04:56:00.477Z,12.84
2018-04-13T04:57:14.081Z,12.81
2018-04-13T04:58:25.572Z,12.82
2018-04-13T04:59:37.629Z,12.82
2018-04-13T05:00:50.177Z,12.81
2018-04-13T05:02:00.812Z,12.84
2018-04-13T05:03:13.059Z,12.82
2018-04-13T05:04:24.713Z,12.82
2018-04-13T05:05:35.884Z,12.75
2018-04-13T05:06:49.575Z,12.72
2018-04-13T05:08:01.891Z,12.81
2018-04-13T05:09:13.705Z,12.81
2018-04-13T05:10:25.925Z,12.84
2018-04-13T05:11:39.221Z,12.84
2018-04-13T05:12:50.683Z,12.81
2018-04-13T05:14:01.500Z,12.81
2018-04-13T05:15:12.273Z,12.82
2018-04-13T05:16:25.113Z,12.78
2018-04-13T05:17:36.100Z,12.84
2018-04-13T05:18:49.549Z,12.85
2018-04-13T05:20:01.343Z,12.89
2018-04-13T05:21:13.202Z,12.95
2018-04-13T05:22:24.220Z,12.95
2018-04-13T05:23:36.102Z,12.93
2018-04-13T05:24:49.409Z,12.96
2018-04-13T05:26:00.365Z,12.9
2018-04-13T05:27:12.472Z,12.92
2018-04-13T05:28:24.534Z,12.93
2018-04-13T05:29:35.356Z,13.04
2018-04-13T05:30:46.143Z,13.06
2018-04-13T05:31:58.230Z,13.03
2018-04-13T05:33:09.810Z,13.01
2018-04-13T05:34:27.328Z,12.97
2018-04-13T05:35:42.776Z,13.06
2018-04-13T05:36:56.306Z,12.96
2018-04-13T05:38:08.843Z,13.08
2018-04-13T05:39:22.108Z,13.01
2018-04-13T05:40:32.097Z,13.06
2018-04-13T05:41:43.570Z,13.03
2018-04-13T05:42:56.228Z,13.11
2018-04-13T05:44:09.271Z,13.06
2018-04-13T05:45:22.492Z,13.06
2018-04-13T05:46:35.359Z,13.11
2018-04-13T05:47:49.430Z,13.11
2018-04-13T05:49:00.991Z,13.18
2018-04-13T05:50:12.410Z,13.13
2018-04-13T05:51:26.638Z,13.08
2018-04-13T05:52:37.228Z,13.13
2018-04-13T05:53:48.565Z,13.18
2018-04-13T05:55:00.391Z,13.08
2018-04-13T05:56:13.304Z,13.12
2018-04-13T05:57:26.590Z,13.09
2018-04-13T05:58:38.617Z,13.11
2018-04-13T05:59:49.532Z,13.19
2018-04-13T06:01:01.984Z,13.18
2018-04-13T06:02:13.015Z,13.18
2018-04-13T06:03:23.776Z,13.22
2018-04-13T06:04:39.062Z,13.19
2018-04-13T06:05:50.528Z,13.3
2018-04-13T06:07:01.045Z,13.31
2018-04-13T06:08:11.600Z,13.36
2018-04-13T06:09:25.327Z,13.34
2018-04-13T06:10:36.889Z,13.33
2018-04-13T06:11:51.571Z,13.4
2018-04-13T06:13:02.686Z,13.4
2018-04-13T06:14:13.630Z,13.45
2018-04-13T06:15:25.764Z,13.46
2018-04-13T06:16:36.934Z,13.58
2018-04-13T06:17:49.191Z,13.64
2018-04-13T06:19:02.881Z,13.61
2018-04-13T06:20:15.313Z,13.59
2018-04-13T06:21:26.986Z,13.56
2018-04-13T06:22:38.949Z,13.59
2018-04-13T06:23:50.631Z,13.61
2018-04-13T06:25:05.041Z,13.71
2018-04-13T06:26:18.815Z,13.77
2018-04-13T06:27:30.291Z,13.88
2018-04-13T06:28:43.490Z,13.95
2018-04-13T06:29:55.788Z,13.91
2018-04-13T06:31:08.422Z,13.96
2018-04-13T06:32:20.169Z,14.04
2018-04-13T06:33:31.385Z,13.96
2018-04-13T06:34:42.625Z,14.03
2018-04-13T06:35:54.958Z,14.03
2018-04-13T06:37:06.285Z,13.99
2018-04-13T06:38:17.404Z,14.02
2018-04-13T06:39:28.158Z,14.09
2018-04-13T06:40:39.359Z,14.07
2018-04-13T06:41:50.663Z,14.14
2018-04-13T06:43:03.268Z,14.16
2018-04-13T06:44:14.942Z,14.13
2018-04-13T06:45:29.220Z,14.1
2018-04-13T06:46:40.302Z,14.18
2018-04-13T06:47:50.944Z,14.24
2018-04-13T06:49:01.607Z,14.28
2018-04-13T06:50:13.246Z,14.29
2018-04-13T06:51:27.510Z,14.26
2018-04-13T06:52:38.893Z,14.37
2018-04-13T06:53:51.106Z,14.43
2018-04-13T06:55:01.710Z,14.4
2018-04-13T06:56:13.581Z,14.44
2018-04-13T06:57:25.890Z,14.47
2018-04-13T06:58:36.500Z,14.56
2018-04-13T06:59:47.570Z,14.54
2018-04-13T07:00:58.185Z,14.62
2018-04-13T07:02:09.165Z,14.66
2018-04-13T07:03:21.751Z,14.67
2018-04-13T07:04:33.994Z,14.69
2018-04-13T07:05:45.016Z,14.7
2018-04-13T07:06:57.081Z,14.81
2018-04-13T07:08:08.756Z,14.8
2018-04-13T07:09:19.309Z,14.84
2018-04-13T07:10:30.540Z,14.98
2018-04-13T07:11:42.780Z,14.95
2018-04-13T07:12:54.374Z,14.95
2018-04-13T07:14:08.802Z,15.03
2018-04-13T07:15:19.423Z,15.08
2018-04-13T07:16:31.441Z,15.14
2018-04-13T07:17:45.103Z,15.06
2018-04-13T07:19:09.899Z,15.14
2018-04-13T07:20:20.806Z,15.2
2018-04-13T07:21:32.821Z,15.24
2018-04-13T07:22:44.305Z,15.2
2018-04-13T07:25:21.022Z,15.27
2018-04-13T07:26:34.246Z,15.21
2018-04-13T07:27:48.573Z,15.35
2018-04-13T07:29:00.478Z,15.35
2018-04-13T07:30:12.615Z,15.36
2018-04-13T07:31:24.160Z,15.38
2018-04-13T07:32:36.243Z,15.36
2018-04-13T07:33:47.752Z,15.43
2018-04-13T07:35:01.298Z,15.36
2018-04-13T07:36:14.903Z,15.35
2018-04-13T07:37:31.872Z,15.33
2018-04-13T07:38:46.878Z,15.29
2018-04-13T07:39:58.747Z,15.24
2018-04-13T07:41:12.220Z,15.27
2018-04-13T07:42:25.850Z,15.33
2018-04-13T07:43:39.024Z,15.35
2018-04-13T07:44:56.881Z,15.25
2018-04-13T07:46:08.471Z,15.24
2018-04-13T07:47:20.868Z,15.25
2018-04-13T07:48:36.916Z,15.23
2018-04-13T07:49:49.918Z,15.23
2018-04-13T07:51:03.124Z,15.21
2018-04-13T07:52:19.172Z,15.18
2018-04-13T07:53:31.346Z,15.18
2018-04-13T07:54:41.723Z,15.15
2018-04-13T07:55:52.995Z,15.17
2018-04-13T07:57:06.067Z,15.18
2018-04-13T07:58:19.992Z,15.21
2018-04-13T07:59:41.127Z,15.25
2018-04-13T08:00:52.678Z,15.24
2018-04-13T08:02:04.971Z,15.18
2018-04-13T08:03:24.845Z,15.21
2018-04-13T08:04:36.776Z,15.2
2018-04-13T08:05:47.587Z,15.18
2018-04-13T08:07:00.147Z,15.24
2018-04-13T08:08:12.934Z,15.23
2018-04-13T08:09:24.128Z,15.17
2018-04-13T08:10:35.564Z,15.24
2018-04-13T08:11:46.124Z,15.23
2018-04-13T08:12:58.268Z,15.21
2018-04-13T08:14:09.025Z,15.24
2018-04-13T08:15:20.871Z,15.27
2018-04-13T08:16:32.747Z,15.2
2018-04-13T08:17:43.777Z,15.32
2018-04-13T08:18:57.774Z,15.35
2018-04-13T08:20:08.633Z,15.35
2018-04-13T08:21:18.867Z,15.38
2018-04-13T08:22:29.031Z,15.45
2018-04-13T08:23:39.204Z,15.46
2018-04-13T08:24:49.388Z,15.45
2018-04-13T08:25:59.182Z,15.46
2018-04-13T08:27:09.339Z,15.45
2018-04-13T08:28:19.476Z,15.39
2018-04-13T08:29:29.655Z,15.43
2018-04-13T08:30:39.837Z,15.46
2018-04-13T08:31:50.075Z,15.45
2018-04-13T08:33:00.271Z,15.46
2018-04-13T08:34:10.451Z,15.45
2018-04-13T08:35:20.346Z,15.46
2018-04-13T08:36:30.683Z,15.48
2018-04-13T08:37:40.997Z,15.48
2018-04-13T08:38:51.271Z,15.46
2018-04-13T08:40:01.511Z,15.5
2018-04-13T08:41:11.700Z,15.54
2018-04-13T08:42:21.892Z,15.46
2018-04-13T08:43:32.250Z,15.54
2018-04-13T08:44:42.510Z,15.45
2018-04-13T08:45:52.721Z,15.48
2018-04-13T08:47:02.903Z,15.45
2018-04-13T08:48:13.089Z,15.5
2018-04-13T08:49:23.190Z,15.46
2018-04-13T08:50:33.521Z,15.51
2018-04-13T08:51:43.803Z,15.46
2018-04-13T08:52:54.107Z,15.5
2018-04-13T08:54:04.370Z,15.43
2018-04-13T08:55:14.771Z,15.45
2018-04-13T08:56:25.036Z,15.42
2018-04-13T08:57:34.940Z,15.4
2018-04-13T08:58:44.977Z,15.46
2018-04-13T08:59:55.146Z,15.45
2018-04-13T09:01:05.429Z,15.35
2018-04-13T09:02:15.641Z,15.4
2018-04-13T09:03:25.841Z,15.43
2018-04-13T09:04:36.007Z,15.43
2018-04-13T09:05:46.301Z,15.33
2018-04-13T09:06:56.519Z,15.35
2018-04-13T09:08:06.804Z,15.35
2018-04-13T09:09:16.997Z,15.32
2018-04-13T09:10:27.195Z,15.35
2018-04-13T09:11:37.437Z,15.38
2018-04-13T09:12:47.639Z,15.32
2018-04-13T09:13:57.852Z,15.3
2018-04-13T09:15:08.039Z,15.33
2018-04-13T09:16:18.221Z,15.3
2018-04-13T09:17:28.648Z,15.3
2018-04-13T09:18:38.529Z,15.4
2018-04-13T09:19:48.661Z,15.39
2018-04-13T09:20:58.924Z,15.45
2018-04-13T09:22:09.068Z,15.46
2018-04-13T09:23:19.228Z,15.48
2018-04-13T09:24:29.417Z,15.45
2018-04-13T09:25:39.671Z,15.5
2018-04-13T09:26:49.872Z,15.48
2018-04-13T09:28:00.313Z,15.51
2018-04-13T09:29:10.556Z,15.48
2018-04-13T09:30:20.734Z,15.5
2018-04-13T09:31:30.916Z,15.45
2018-04-13T09:32:41.054Z,15.48
2018-04-13T09:33:51.211Z,15.46
2018-04-13T09:35:01.460Z,15.53
2018-04-13T09:36:11.712Z,15.45
2018-04-13T09:37:21.930Z,15.43
2018-04-13T09:38:32.159Z,15.5
2018-04-13T09:39:42.071Z,15.42
2018-04-13T09:40:52.243Z,15.43
2018-04-13T09:42:02.375Z,15.46
2018-04-13T09:43:12.560Z,15.46
2018-04-13T09:44:22.994Z,15.46
2018-04-13T09:45:32.935Z,15.46
2018-04-13T09:46:43.095Z,15.42
2018-04-13T09:47:53.360Z,15.57
2018-04-13T09:49:03.251Z,15.5
2018-04-13T09:50:13.404Z,15.57
2018-04-13T09:51:23.594Z,15.57
2018-04-13T09:52:33.775Z,15.6
2018-04-13T09:53:44.041Z,15.64
2018-04-13T09:54:54.268Z,15.61
2018-04-13T09:56:04.465Z,15.64
2018-04-13T09:57:14.749Z,15.7
2018-04-13T09:58:24.976Z,15.64
2018-04-13T09:59:35.128Z,15.7
2018-04-13T10:00:45.331Z,15.69
2018-04-13T10:01:55.534Z,15.76
2018-04-13T10:03:05.464Z,15.7
2018-04-13T10:04:15.644Z,15.87
2018-04-13T10:05:25.859Z,15.84
2018-04-13T10:06:36.072Z,15.88
2018-04-13T10:07:46.021Z,15.88
2018-04-13T10:08:56.181Z,15.91
2018-04-13T10:10:06.372Z,15.98
2018-04-13T10:11:16.520Z,15.95
2018-04-13T10:12:26.681Z,16.17
2018-04-13T10:13:36.855Z,16.17
2018-04-13T10:14:47.138Z,16.2
2018-04-13T10:15:57.318Z,16.29
2018-04-13T10:17:07.582Z,16.32
2018-04-13T10:18:17.766Z,16.43
2018-04-13T10:19:28.025Z,16.54
2018-04-13T10:20:38.192Z,16.64
2018-04-13T10:21:48.514Z,16.82
2018-04-13T10:22:58.817Z,16.93
2018-04-13T10:24:09.034Z,17.11
2018-04-13T10:25:19.184Z,17.2
2018-04-13T10:26:29.370Z,17.3
2018-04-13T10:27:39.550Z,17.39
2018-04-13T10:28:49.834Z,17.61
2018-04-13T10:30:00.057Z,17.83
2018-04-13T10:31:10.237Z,18.16
2018-04-13T10:32:20.391Z,18.55
2018-04-13T10:33:30.321Z,19.16
2018-04-13T10:34:40.475Z,19.31
2018-04-13T10:35:50.672Z,19.31
2018-04-13T10:37:00.829Z,19.31
2018-04-13T10:38:10.994Z,19.27
2018-04-13T10:39:22.193Z,19.19
2018-04-13T10:40:32.362Z,19.06
2018-04-13T10:41:42.568Z,18.84
2018-04-13T10:42:52.743Z,18.63
2018-04-13T10:44:02.947Z,18.41
2018-04-13T10:45:13.305Z,18.31
2018-04-13T10:46:23.490Z,18.34
2018-04-13T10:47:33.665Z,18.28
2018-04-13T10:48:43.849Z,18.2
2018-04-13T10:49:54.020Z,18.16
2018-04-13T10:51:04.256Z,18.12
2018-04-13T10:52:14.517Z,18.12
2018-04-13T10:53:27.491Z,18.04
2018-04-13T10:54:37.644Z,18.02
2018-04-13T10:55:47.800Z,18.05
2018-04-13T10:56:57.967Z,17.87
2018-04-13T10:58:08.216Z,17.85
2018-04-13T10:59:18.453Z,17.75
2018-04-13T11:00:28.654Z,17.64
2018-04-13T11:01:38.866Z,17.6
2018-04-13T11:02:49.064Z,17.46
2018-04-13T11:03:59.315Z,17.45
2018-04-13T11:05:09.254Z,17.42
2018-04-13T11:06:19.077Z,17.35
2018-04-13T11:07:29.218Z,17.31
2018-04-13T11:08:39.382Z,17.35
2018-04-13T11:09:49.541Z,17.24
2018-04-13T11:10:59.701Z,17.28
2018-04-13T11:12:09.923Z,17.27
2018-04-13T11:13:20.106Z,17.23
2018-04-13T11:14:30.382Z,17.27
2018-04-13T11:15:40.573Z,17.35
2018-04-13T11:16:50.835Z,17.27
2018-04-13T11:18:01.234Z,17.36
2018-04-13T11:19:11.422Z,17.39
2018-04-13T11:20:21.574Z,17.47
2018-04-13T11:21:31.718Z,17.4
2018-04-13T11:22:41.939Z,17.46
2018-04-13T11:23:52.101Z,17.39
2018-04-13T11:25:02.343Z,17.39
2018-04-13T11:26:12.546Z,17.45
2018-04-13T11:27:22.757Z,17.43
2018-04-13T11:28:32.933Z,17.49
2018-04-13T11:29:43.233Z,17.47
2018-04-13T11:30:52.822Z,17.43
2018-04-13T11:32:03.236Z,17.43
2018-04-13T11:33:13.177Z,17.46
2018-04-13T11:34:23.443Z,17.43
2018-04-13T11:35:33.746Z,17.45
2018-04-13T11:36:43.929Z,17.38
2018-04-13T11:37:54.106Z,17.36
2018-04-13T11:39:04.286Z,17.28
2018-04-13T11:40:14.214Z,17.24
2018-04-13T11:41:24.440Z,17.21
2018-04-13T11:42:34.676Z,17.14
2018-04-13T11:43:44.968Z,17.11
2018-04-13T11:44:55.121Z,17.02
2018-04-13T11:46:05.388Z,17.05
2018-04-13T11:47:15.582Z,17.08
2018-04-13T11:48:25.760Z,17.08
2018-04-13T11:49:36.016Z,17.02
2018-04-13T11:50:46.275Z,17.02
2018-04-13T11:51:56.586Z,16.99
2018-04-13T11:53:06.766Z,17.06
2018-04-13T11:54:16.936Z,17.02
2018-04-13T11:55:27.128Z,17.09
2018-04-13T11:56:37.292Z,17.08
2018-04-13T11:57:47.497Z,17.31
2018-04-13T11:58:57.746Z,17.4
2018-04-13T12:00:07.993Z,17.43
2018-04-13T12:01:18.230Z,17.62
2018-04-13T12:02:28.516Z,17.75
2018-04-13T12:03:38.808Z,17.91
2018-04-13T12:04:48.985Z,18.17
2018-04-13T12:05:59.220Z,18.49
2018-04-13T12:07:09.403Z,18.9
2018-04-13T12:08:19.396Z,19.3
2018-04-13T12:09:29.559Z,19.7
2018-04-13T12:10:40.003Z,19.92
2018-04-13T12:11:50.194Z,19.98
2018-04-13T12:13:00.468Z,19.98
2018-04-13T12:14:10.756Z,20
2018-04-13T12:15:20.947Z,19.89
2018-04-13T12:16:33.081Z,19.9
2018-04-13T12:17:43.340Z,19.82
2018-04-13T12:18:53.531Z,19.82
2018-04-13T12:20:03.717Z,19.83
2018-04-13T12:21:13.896Z,19.83
2018-04-13T12:22:24.102Z,19.97
2018-04-13T12:23:34.376Z,20.08
2018-04-13T12:25:57.460Z,20.26
2018-04-13T12:27:07.611Z,20.38
2018-04-13T12:30:50.043Z,20.14
2018-04-13T12:32:00.256Z,20
2018-04-13T12:33:10.166Z,19.73
2018-04-13T12:34:20.416Z,19.58
2018-04-13T12:35:30.686Z,19.28
2018-04-13T12:36:40.878Z,19.09
2018-04-13T12:37:51.106Z,18.91
2018-04-13T12:39:01.327Z,18.72
2018-04-13T12:40:11.530Z,18.41
2018-04-13T12:41:21.824Z,18.34
2018-04-13T12:42:32.091Z,18.19
2018-04-13T12:43:42.280Z,18
2018-04-13T12:44:52.469Z,17.83
2018-04-13T12:46:02.633Z,17.77
2018-04-13T12:47:12.802Z,17.61
2018-04-13T12:48:23.086Z,17.32
2018-04-13T12:49:33.409Z,17.23
2018-04-13T12:50:43.652Z,17.23
2018-04-13T12:51:53.574Z,17.04
2018-04-13T12:53:03.807Z,17.01
2018-04-13T12:54:14.592Z,16.82
2018-04-13T12:55:24.781Z,16.71
2018-04-13T12:56:35.107Z,16.5
2018-04-13T12:57:45.555Z,16.51
2018-04-13T12:58:55.776Z,16.44
2018-04-13T13:00:05.922Z,16.39
2018-04-13T13:01:16.208Z,16.35
2018-04-13T13:02:26.416Z,16.27
2018-04-13T13:03:36.599Z,16.2
2018-04-13T13:04:46.511Z,16.17
2018-04-13T13:05:56.766Z,16.13
2018-04-13T13:07:06.943Z,16.04
2018-04-13T13:08:17.152Z,15.95
2018-04-13T13:09:27.390Z,15.94
2018-04-13T13:10:37.606Z,15.76
2018-04-13T13:11:47.799Z,15.76
2018-04-13T13:12:58.022Z,15.64
2018-04-13T13:14:08.184Z,15.68
2018-04-13T13:15:18.339Z,15.55
2018-04-13T13:16:28.492Z,15.54
2018-04-13T13:17:38.384Z,15.46
2018-04-13T13:18:48.578Z,15.43
2018-04-13T13:19:58.767Z,15.35
2018-04-13T13:21:08.964Z,15.35
2018-04-13T13:22:19.146Z,15.36
2018-04-13T13:23:29.378Z,15.38
2018-04-13T13:24:39.590Z,15.27
2018-04-13T13:25:49.836Z,15.23
2018-04-13T13:26:59.787Z,15.2
2018-04-13T13:28:09.989Z,15.14
2018-04-13T13:29:20.177Z,15.11
2018-04-13T13:30:30.362Z,15.14
2018-04-13T13:31:40.649Z,15.24
2018-04-13T13:32:50.857Z,15.23
2018-04-13T13:34:01.043Z,15.35
2018-04-13T13:35:11.204Z,15.21
2018-04-13T13:36:21.124Z,15.35
2018-04-13T13:37:31.474Z,15.54
2018-04-13T13:38:41.788Z,15.64
2018-04-13T13:39:52.029Z,15.92
2018-04-13T13:41:02.210Z,16.04
2018-04-13T13:42:12.436Z,16.21
2018-04-13T13:43:22.648Z,16.39
2018-04-13T13:44:32.872Z,16.65
2018-04-13T13:45:43.072Z,16.83
2018-04-13T13:46:53.305Z,17.06
2018-04-13T13:48:03.484Z,17.17
2018-04-13T13:49:13.727Z,17.31
2018-04-13T13:50:25.434Z,17.46
2018-04-13T13:51:36.837Z,17.58
2018-04-13T13:52:47.033Z,17.73
2018-04-13T13:53:56.978Z,17.89
2018-04-13T13:55:07.204Z,17.95
2018-04-13T13:56:18.865Z,17.94
2018-04-13T13:57:30.272Z,18.02
2018-04-13T13:59:56.701Z,17.98
2018-04-13T14:01:06.895Z,18.01
2018-04-13T14:02:17.120Z,17.94
2018-04-13T14:03:27.273Z,17.95
2018-04-13T14:04:37.540Z,17.87
2018-04-13T14:05:47.703Z,17.7
2018-04-13T14:06:57.893Z,17.6
2018-04-13T14:08:08.063Z,17.47
2018-04-13T14:09:18.243Z,17.42
2018-04-13T14:10:28.430Z,17.36
2018-04-13T14:11:38.648Z,17.24
2018-04-13T14:12:48.931Z,17.32
2018-04-13T14:14:00.153Z,17.28
2018-04-13T14:15:10.375Z,17.21
2018-04-13T14:16:20.605Z,17.19
2018-04-13T14:17:30.792Z,17.19
2018-04-13T14:18:40.956Z,17.21
2018-04-13T14:19:51.125Z,17.14
2018-04-13T14:21:01.403Z,17.19
2018-04-13T14:22:11.697Z,17.09
2018-04-13T14:23:22.028Z,17.16
2018-04-13T14:24:32.189Z,17.02
2018-04-13T14:25:42.435Z,17.06
2018-04-13T14:26:53.226Z,16.96
2018-04-13T14:28:03.904Z,16.87
2018-04-13T14:29:14.129Z,16.83
2018-04-13T14:30:24.470Z,16.72
2018-04-13T14:31:34.993Z,16.66
2018-04-13T14:32:45.299Z,16.54
2018-04-13T14:33:55.490Z,16.56
2018-04-13T14:35:05.703Z,16.51
2018-04-13T14:36:15.912Z,16.34
2018-04-13T14:37:26.067Z,16.36
2018-04-13T14:38:36.237Z,16.31
2018-04-13T14:39:46.495Z,16.17
2018-04-13T14:40:56.788Z,16.16
2018-04-13T14:42:07.006Z,16.2
2018-04-13T14:43:17.254Z,16.16
2018-04-13T14:44:27.540Z,16.06
2018-04-13T14:45:37.732Z,15.98
2018-04-13T14:46:47.923Z,15.89
2018-04-13T14:47:58.168Z,15.87
2018-04-13T14:49:08.340Z,15.64
2018-04-13T14:50:18.589Z,15.66
2018-04-13T14:51:28.813Z,15.57
2018-04-13T14:52:39.088Z,15.46
2018-04-13T14:53:49.293Z,15.4
2018-04-13T14:54:59.519Z,15.27
2018-04-13T14:56:09.286Z,15.23
2018-04-13T14:57:19.518Z,15.25
2018-04-13T14:58:29.703Z,15.27
2018-04-13T14:59:39.905Z,15.25
2018-04-13T15:00:50.130Z,15.27
2018-04-13T15:02:00.473Z,15.33
2018-04-13T15:03:10.658Z,15.3
2018-04-13T15:04:20.846Z,15.25
2018-04-13T15:05:31.080Z,15.23
2018-04-13T15:06:41.307Z,15.25
2018-04-13T15:07:51.262Z,15.21
2018-04-13T15:09:01.445Z,15.29
2018-04-13T15:10:11.678Z,15.3
2018-04-13T15:11:22.092Z,15.32
2018-04-13T15:12:32.338Z,15.3
2018-04-13T15:13:42.681Z,15.24
2018-04-13T15:14:53.005Z,15.32
2018-04-13T15:16:03.217Z,15.33
2018-04-13T15:17:13.631Z,15.23
2018-04-13T15:18:23.867Z,15.25
2018-04-13T15:19:34.092Z,15.21
2018-04-13T15:20:44.279Z,15.2
2018-04-13T15:21:54.495Z,15.27
2018-04-13T15:23:04.676Z,15.24
2018-04-13T15:24:14.994Z,15.13
2018-04-13T15:25:25.221Z,15.13
2018-04-13T15:26:35.440Z,15.15
2018-04-13T15:27:45.665Z,15.09